Time;durP1;ratioP1;P1;durP2;ratioP2;P2;SDS_P1;SDS_P2;PMS_P1;PMS_P2;Temp;Humidity;BMP_temperature;BMP_pressure;BME280_temperature;BME280_humidity;BME280_pressure;Samples;Min_cycle;Max_cycle;Signal;HPM_P1;HPM_P2
2022/11/29 00:01:00;;;;;;;366.60;24.33;;;8.20;99.90;;;;;;5103326;27;20129;-84
2022/11/29 00:03:26;;;;;;;307.00;23.85;;;8.30;99.90;;;;;;5087409;27;20092;-84
2022/11/29 00:05:52;;;;;;;341.85;23.08;;;8.30;99.90;;;;;;5103371;27;20133;-83
2022/11/29 00:08:19;;;;;;;304.30;22.70;;;8.50;99.90;;;;;;5103584;27;20106;-84
2022/11/29 00:10:45;;;;;;;209.18;21.60;;;8.20;99.90;;;;;;5088163;27;20093;-85
2022/11/29 00:13:10;;;;;;;307.10;23.95;;;8.20;99.90;;;;;;5123335;27;20039;-82
2022/11/29 00:15:41;;;;;;;267.33;22.92;;;8.20;99.90;;;;;;5136934;27;20099;-84
2022/11/29 00:18:07;;;;;;;273.00;23.42;;;8.20;99.90;;;;;;5119749;27;20038;-85
2022/11/29 00:20:33;;;;;;;266.52;22.38;;;8.20;99.90;;;;;;5102488;27;20038;-84
2022/11/29 00:22:59;;;;;;;312.70;25.05;;;8.20;99.90;;;;;;5086222;27;20378;-85
2022/11/29 00:25:25;;;;;;;303.92;22.65;;;8.20;99.90;;;;;;5119863;27;20119;-84
2022/11/29 00:27:51;;;;;;;321.55;22.70;;;8.20;99.90;;;;;;5119627;27;20052;-83
2022/11/29 00:30:18;;;;;;;342.20;25.58;;;8.20;99.90;;;;;;5119766;27;20041;-86
2022/11/29 00:32:43;;;;;;;339.17;26.17;;;8.40;99.90;;;;;;5102485;27;20039;-85
2022/11/29 00:35:09;;;;;;;318.48;25.42;;;8.20;99.90;;;;;;5119849;27;20106;-85
2022/11/29 00:37:35;;;;;;;337.50;24.88;;;8.20;99.90;;;;;;5136049;27;20039;-85
2022/11/29 00:40:01;;;;;;;368.83;26.67;;;8.20;99.90;;;;;;5119187;27;20039;-85
2022/11/29 00:42:27;;;;;;;277.90;25.15;;;8.20;99.90;;;;;;5102640;27;20474;-85
2022/11/29 00:44:52;;;;;;;310.77;25.65;;;8.20;99.90;;;;;;5119105;27;20031;-85
2022/11/29 00:47:18;;;;;;;264.98;23.95;;;8.30;99.90;;;;;;5102582;27;20103;-83
2022/11/29 00:49:43;;;;;;;318.13;25.10;;;8.20;99.90;;;;;;5101708;27;20042;-86
2022/11/29 00:52:10;;;;;;;316.67;26.50;;;8.20;99.90;;;;;;5136669;27;20458;-84
2022/11/29 00:54:36;;;;;;;253.70;26.23;;;9.00;99.90;;;;;;5102095;27;20121;-86
2022/11/29 00:57:02;;;;;;;281.50;25.23;;;8.20;99.90;;;;;;5118302;27;20565;-84
2022/11/29 00:59:29;;;;;;;249.48;24.05;;;8.20;99.90;;;;;;5102215;27;20129;-84
2022/11/29 01:01:54;;;;;;;292.38;26.55;;;8.40;99.90;;;;;;5118870;27;20065;-85
2022/11/29 01:04:20;;;;;;;314.10;27.85;;;8.20;99.90;;;;;;5119093;27;20050;-83
2022/11/29 01:06:48;;;;;;;324.55;24.95;;;8.40;99.90;;;;;;5119303;27;20078;-84
2022/11/29 01:09:14;;;;;;;295.98;26.30;;;8.20;99.90;;;;;;5102228;27;20053;-83
2022/11/29 01:11:40;;;;;;;287.73;26.00;;;8.20;99.90;;;;;;5084599;27;20039;-84
2022/11/29 01:14:05;;;;;;;232.25;23.40;;;8.20;99.90;;;;;;5118491;27;20063;-84
2022/11/29 01:16:31;;;;;;;258.73;23.95;;;8.20;99.90;;;;;;5135819;27;20042;-84
2022/11/29 01:18:57;;;;;;;297.20;25.52;;;8.20;99.90;;;;;;5118591;27;20082;-84
2022/11/29 01:21:23;;;;;;;283.45;25.08;;;8.20;99.90;;;;;;5101804;27;20046;-84
2022/11/29 01:23:49;;;;;;;290.40;25.55;;;8.20;99.90;;;;;;5101297;27;20042;-84
2022/11/29 01:26:16;;;;;;;262.38;24.40;;;8.20;99.90;;;;;;5101493;27;20772;-84
2022/11/29 01:28:47;;;;;;;243.93;23.27;;;8.20;99.90;;;;;;5084319;27;20118;-84
2022/11/29 01:31:14;;;;;;;293.70;25.95;;;8.20;99.90;;;;;;5102109;27;20031;-83
2022/11/29 01:33:40;;;;;;;252.23;23.60;;;8.30;99.90;;;;;;5101465;27;20569;-85
2022/11/29 01:36:07;;;;;;;241.20;24.55;;;8.30;99.90;;;;;;5101253;27;20134;-85
2022/11/29 01:38:33;;;;;;;245.50;24.00;;;8.20;99.90;;;;;;5101825;27;20034;-85
2022/11/29 01:41:05;;;;;;;267.48;24.95;;;8.20;99.90;;;;;;5084140;27;20066;-84
2022/11/29 01:43:31;;;;;;;307.58;25.15;;;8.20;99.90;;;;;;5118381;27;20046;-84
2022/11/29 01:45:57;;;;;;;352.25;26.05;;;8.20;99.90;;;;;;5118261;27;20039;-84
2022/11/29 01:48:27;;;;;;;320.55;26.10;;;8.20;99.90;;;;;;5118764;27;20039;-84
2022/11/29 01:50:54;;;;;;;357.38;26.65;;;8.20;99.90;;;;;;5103103;27;20050;-85
2022/11/29 01:53:19;;;;;;;319.75;26.13;;;8.20;99.90;;;;;;5109633;27;20043;-84
2022/11/29 01:55:46;;;;;;;297.73;25.08;;;8.20;99.90;;;;;;5097739;27;20427;-84
2022/11/29 01:58:12;;;;;;;272.02;25.05;;;8.30;99.90;;;;;;5080748;27;20370;-84
2022/11/29 02:00:38;;;;;;;255.90;23.42;;;8.20;99.90;;;;;;5080906;27;20038;-85
2022/11/29 02:03:14;;;;;;;281.60;25.55;;;8.20;99.90;;;;;;5097559;27;20054;-84
2022/11/29 02:05:42;;;;;;;285.30;24.67;;;8.20;99.90;;;;;;5097338;27;20042;-84
2022/11/29 02:08:08;;;;;;;245.55;22.80;;;8.20;99.90;;;;;;5079828;28;20043;-85
2022/11/29 02:11:13;;;;;;;207.45;23.48;;;8.30;99.90;;;;;;5080730;28;20067;-83
2022/11/29 02:13:48;;;;;;;211.15;22.08;;;8.10;99.90;;;;;;5114834;27;20050;-84
2022/11/29 02:16:22;;;;;;;219.50;22.95;;;8.10;99.90;;;;;;5099042;27;20057;-85
2022/11/29 02:19:07;;;;;;;233.50;22.33;;;8.10;99.90;;;;;;5114895;28;20106;-83
2022/11/29 02:21:48;;;;;;;;;;;8.10;99.90;;;;;;5123539;28;20367;-84
2022/11/29 02:24:18;;;;;;;268.98;24.67;;;8.10;99.90;;;;;;5086252;28;20366;-83
2022/11/29 02:27:29;;;;;;;251.38;24.10;;;8.10;99.90;;;;;;5099263;28;20046;-85
2022/11/29 02:30:20;;;;;;;296.55;27.63;;;8.10;99.90;;;;;;5081566;28;20079;-85
2022/11/29 02:32:51;;;;;;;222.00;22.92;;;8.10;99.90;;;;;;5097788;28;20047;-84
2022/11/29 02:35:38;;;;;;;289.00;25.02;;;8.10;99.90;;;;;;5128151;28;20039;-85
2022/11/29 02:38:22;;;;;;;343.13;26.35;;;8.10;99.90;;;;;;5084014;28;20050;-84
2022/11/29 02:41:25;;;;;;;307.23;24.52;;;8.10;99.90;;;;;;5115048;28;20043;-85
2022/11/29 02:44:16;;;;;;;296.13;26.50;;;8.10;99.90;;;;;;5113901;28;20050;-85
2022/11/29 02:47:20;;;;;;;296.30;23.95;;;8.00;99.90;;;;;;5097466;28;20049;-84
2022/11/29 02:49:55;;;;;;;292.60;25.20;;;8.10;99.90;;;;;;5079139;28;20051;-84
2022/11/29 02:52:36;;;;;;;304.55;24.52;;;8.00;99.90;;;;;;5096986;28;20145;-83
2022/11/29 02:55:28;;;;;;;302.67;25.45;;;8.00;99.90;;;;;;5065107;28;20069;-84
2022/11/29 02:58:22;;;;;;;276.67;24.08;;;8.00;99.90;;;;;;5064748;28;20035;-84
2022/11/29 03:00:55;;;;;;;296.10;24.65;;;8.00;99.90;;;;;;5096956;28;20043;-85
2022/11/29 03:03:34;;;;;;;271.08;25.42;;;8.00;99.90;;;;;;5081170;28;20386;-83
2022/11/29 03:06:29;;;;;;;303.35;26.55;;;8.00;99.90;;;;;;5064936;28;20047;-85
2022/11/29 03:09:05;;;;;;;273.88;25.92;;;8.00;99.90;;;;;;5097028;28;20085;-84
2022/11/29 03:11:42;;;;;;;305.80;26.08;;;8.00;99.90;;;;;;5097233;28;20370;-84
2022/11/29 03:14:23;;;;;;;273.38;24.08;;;8.00;99.90;;;;;;5096759;28;20467;-84
2022/11/29 03:17:22;;;;;;;305.92;24.77;;;8.00;99.90;;;;;;5064810;28;20093;-84
2022/11/29 03:19:54;;;;;;;329.88;26.10;;;8.00;99.90;;;;;;5074524;27;20506;-84
2022/11/29 03:22:55;;;;;;;345.90;26.65;;;8.00;99.90;;;;;;5100917;27;20482;-84
2022/11/29 03:25:32;;;;;;;341.13;26.75;;;8.00;99.90;;;;;;5116932;27;20061;-84
2022/11/29 03:28:10;;;;;;;335.75;25.00;;;8.00;99.90;;;;;;5067852;27;20047;-83
2022/11/29 03:30:36;;;;;;;361.20;26.95;;;7.90;99.90;;;;;;5085421;27;20039;-85
2022/11/29 03:33:19;;;;;;;303.98;24.92;;;8.30;99.90;;;;;;5117054;27;20047;-83
2022/11/29 03:36:03;;;;;;;356.30;26.15;;;7.90;99.90;;;;;;5100721;27;20087;-84
2022/11/29 03:38:38;;;;;;;406.40;27.88;;;7.90;99.90;;;;;;5067140;27;20039;-84
2022/11/29 03:41:24;;;;;;;277.02;23.55;;;7.90;99.90;;;;;;5083881;27;20138;-83
2022/11/29 03:43:58;;;;;;;258.27;25.05;;;7.90;99.90;;;;;;5086156;27;20127;-84
2022/11/29 03:46:51;;;;;;;325.05;24.55;;;7.90;99.90;;;;;;5100235;27;20035;-83
2022/11/29 03:49:25;;;;;;;339.38;27.35;;;7.90;99.90;;;;;;5101275;27;20031;-82
2022/11/29 03:52:18;;;;;;;327.17;25.25;;;7.90;99.90;;;;;;5084196;27;20114;-84
2022/11/29 03:54:52;;;;;;;340.55;25.30;;;7.90;99.90;;;;;;5085559;27;20046;-83
2022/11/29 03:57:19;;;;;;;292.77;25.70;;;7.80;99.90;;;;;;5099537;27;20043;-84
2022/11/29 03:59:54;;;;;;;276.48;25.55;;;7.80;99.90;;;;;;5083111;27;20068;-83
2022/11/29 04:02:32;;;;;;;304.40;25.92;;;7.80;99.90;;;;;;5122119;27;20042;-83
2022/11/29 04:05:19;;;;;;;222.52;23.05;;;7.80;99.90;;;;;;5103520;27;20496;-85
2022/11/29 04:07:51;;;;;;;239.02;23.98;;;7.80;99.90;;;;;;5069403;27;20377;-83
2022/11/29 04:10:26;;;;;;;265.98;25.10;;;7.80;99.90;;;;;;5136888;27;20129;-83
2022/11/29 04:13:12;;;;;;;297.33;26.15;;;7.80;99.90;;;;;;5103080;27;20485;-84
2022/11/29 04:15:46;;;;;;;270.40;24.58;;;7.80;99.90;;;;;;5137388;27;20050;-83
2022/11/29 04:18:45;;;;;;;288.77;26.83;;;7.80;99.90;;;;;;5119687;27;20377;-85
2022/11/29 04:21:22;;;;;;;325.67;25.67;;;7.80;99.90;;;;;;5136828;27;20049;-84
2022/11/29 04:24:21;;;;;;;387.77;28.25;;;7.80;99.90;;;;;;5120009;27;20045;-84
2022/11/29 04:27:19;;;;;;;309.88;26.80;;;7.80;99.90;;;;;;5137078;27;20031;-84
2022/11/29 04:29:51;;;;;;;356.48;27.27;;;7.80;99.90;;;;;;5122274;27;20046;-84
2022/11/29 04:32:22;;;;;;;259.45;25.08;;;7.80;99.90;;;;;;5118901;27;20474;-84
2022/11/29 04:35:00;;;;;;;260.73;24.75;;;7.80;99.90;;;;;;5119844;27;20139;-84
2022/11/29 04:37:34;;;;;;;313.98;26.77;;;7.80;99.90;;;;;;5119387;27;20075;-83
2022/11/29 04:40:22;;;;;;;217.65;23.08;;;7.80;99.90;;;;;;5136350;27;20537;-83
2022/11/29 04:43:18;;;;;;;323.80;28.17;;;7.70;99.90;;;;;;5119916;27;20057;-83
2022/11/29 04:45:53;;;;;;;228.73;24.35;;;7.70;99.90;;;;;;5087349;27;20070;-84
2022/11/29 04:48:56;;;;;;;278.58;25.88;;;7.70;99.90;;;;;;5118812;27;20047;-83
2022/11/29 04:51:34;;;;;;;290.45;26.70;;;7.70;99.90;;;;;;5119019;27;20038;-84
2022/11/29 04:54:21;;;;;;;295.88;26.73;;;7.70;99.90;;;;;;5119378;27;20038;-83
2022/11/29 04:56:53;;;;;;;350.77;27.02;;;7.70;99.90;;;;;;5136417;27;20146;-85
2022/11/29 04:59:29;;;;;;;304.35;26.52;;;7.70;99.90;;;;;;5118757;27;20044;-83
2022/11/29 05:02:33;;;;;;;274.27;26.35;;;7.70;99.90;;;;;;5119247;27;20469;-83
2022/11/29 05:05:10;;;;;;;288.33;26.95;;;7.70;99.90;;;;;;5118948;27;20050;-83
2022/11/29 05:08:14;;;;;;;247.43;24.70;;;8.70;99.90;;;;;;5135380;27;20057;-83
2022/11/29 05:11:18;;;;;;;249.50;23.27;;;7.70;99.90;;;;;;5118795;27;20038;-84
2022/11/29 05:13:55;;;;;;;318.80;25.90;;;7.60;99.90;;;;;;5104765;27;20086;-84
2022/11/29 05:16:41;;;;;;;276.27;25.30;;;7.60;99.90;;;;;;5119595;27;20081;-85
2022/11/29 05:19:26;;;;;;;225.00;24.05;;;7.50;99.90;;;;;;5119446;27;20050;-84
2022/11/29 05:22:17;;;;;;;184.82;23.17;;;7.50;99.90;;;;;;5121192;27;20385;-83
2022/11/29 05:24:54;;;;;;;262.40;23.73;;;7.50;99.90;;;;;;5121441;27;20042;-83
2022/11/29 05:27:32;;;;;;;206.88;23.67;;;7.50;99.90;;;;;;5086053;27;20035;-85
2022/11/29 05:30:05;;;;;;;232.60;22.90;;;7.50;99.90;;;;;;5136075;27;20153;-83
2022/11/29 05:32:51;;;;;;;230.43;23.95;;;7.50;99.90;;;;;;5118379;27;20049;-84
2022/11/29 05:35:52;;;;;;;226.15;22.88;;;7.50;99.90;;;;;;5104064;27;20054;-85
2022/11/29 05:38:42;;;;;;;196.20;21.25;;;7.40;99.90;;;;;;5118091;27;20043;-83
2022/11/29 05:41:40;;;;;;;223.45;21.73;;;7.40;99.90;;;;;;5134937;27;20053;-85
2022/11/29 05:44:41;;;;;;;212.13;23.00;;;7.40;99.90;;;;;;5118280;27;20087;-84
2022/11/29 05:47:09;;;;;;;188.18;21.65;;;7.40;99.90;;;;;;5106550;27;20162;-82
2022/11/29 05:50:01;;;;;;;211.32;23.67;;;7.40;99.90;;;;;;5119206;27;20047;-85
2022/11/29 05:52:56;;;;;;;225.88;22.25;;;7.40;99.90;;;;;;5101708;27;20440;-83
2022/11/29 05:55:40;;;;;;;172.82;21.13;;;7.40;99.90;;;;;;5121325;27;20061;-84
2022/11/29 05:58:17;;;;;;;264.17;25.35;;;7.40;99.90;;;;;;5118218;27;20034;-83
2022/11/29 06:01:03;;;;;;;298.67;24.25;;;7.40;99.90;;;;;;5118296;27;20049;-83
2022/11/29 06:03:43;;;;;;;305.25;25.75;;;7.40;99.90;;;;;;5118254;27;20125;-83
2022/11/29 06:06:18;;;;;;;216.00;22.58;;;7.40;99.90;;;;;;5118153;27;20049;-83
2022/11/29 06:08:52;;;;;;;263.83;25.33;;;7.40;99.90;;;;;;5102151;27;20043;-84
2022/11/29 06:11:23;;;;;;;233.73;23.92;;;7.40;99.90;;;;;;5101648;27;20038;-85
2022/11/29 06:14:08;;;;;;;240.88;24.45;;;7.40;99.90;;;;;;5101552;27;20049;-84
2022/11/29 06:16:55;;;;;;;211.32;23.20;;;7.40;99.90;;;;;;5100764;27;20038;-84
2022/11/29 06:19:36;;;;;;;238.88;24.50;;;7.40;99.90;;;;;;5121770;27;20039;-83
2022/11/29 06:22:15;;;;;;;209.18;22.48;;;7.40;99.90;;;;;;5119606;27;20364;-83
2022/11/29 06:25:11;;;;;;;181.30;21.48;;;7.40;99.90;;;;;;5118637;27;20433;-85
2022/11/29 06:28:09;;;;;;;156.30;21.80;;;7.40;99.90;;;;;;5151921;27;20055;-83
2022/11/29 06:30:59;;;;;;;155.07;20.90;;;7.30;99.90;;;;;;5120242;27;20057;-84
2022/11/29 06:33:41;;;;;;;179.25;22.25;;;7.30;99.90;;;;;;5101137;27;20053;-83
2022/11/29 06:36:10;;;;;;;186.90;20.95;;;7.40;99.90;;;;;;5086039;27;20059;-83
2022/11/29 06:38:35;;;;;;;180.57;22.33;;;7.40;99.90;;;;;;5117425;27;20525;-85
2022/11/29 06:41:01;;;;;;;150.95;20.83;;;7.30;99.90;;;;;;5083469;27;20134;-84
2022/11/29 06:43:27;;;;;;;119.93;19.38;;;7.30;99.90;;;;;;5100494;27;20051;-84
2022/11/29 06:46:04;;;;;;;109.93;19.42;;;7.30;99.90;;;;;;5084329;27;20041;-84
2022/11/29 06:48:35;;;;;;;135.07;19.98;;;7.30;99.90;;;;;;5101432;27;20153;-84
2022/11/29 06:51:28;;;;;;;123.03;19.50;;;7.30;99.90;;;;;;5096414;28;20067;-84
2022/11/29 06:53:57;;;;;;;137.80;20.25;;;7.30;99.90;;;;;;5101058;27;20055;-84
2022/11/29 06:56:32;;;;;;;136.60;18.60;;;7.20;99.90;;;;;;5101425;27;20043;-84
2022/11/29 06:59:35;;;;;;;122.93;20.90;;;7.30;99.90;;;;;;5085364;27;20061;-84
2022/11/29 07:02:09;;;;;;;127.10;18.23;;;7.20;99.90;;;;;;5118595;27;20035;-84
2022/11/29 07:04:50;;;;;;;123.80;19.52;;;7.30;99.90;;;;;;5083842;27;20548;-83
2022/11/29 07:07:20;;;;;;;151.02;20.95;;;7.30;99.90;;;;;;5101466;27;20046;-85
2022/11/29 07:09:48;;;;;;;136.23;20.20;;;7.20;99.90;;;;;;5084025;27;20043;-83
2022/11/29 07:12:15;;;;;;;132.45;20.08;;;7.20;99.90;;;;;;5084914;27;20043;-84
2022/11/29 07:14:41;;;;;;;117.57;19.85;;;7.20;99.90;;;;;;5100718;27;20060;-84
2022/11/29 07:17:27;;;;;;;133.32;20.58;;;7.30;99.90;;;;;;5100651;27;20032;-84
2022/11/29 07:20:23;;;;;;;120.13;18.63;;;7.20;99.90;;;;;;5069305;27;20415;-83
2022/11/29 07:23:13;;;;;;;104.45;18.88;;;7.30;99.90;;;;;;5100444;27;20055;-84
2022/11/29 07:25:57;;;;;;;117.25;19.48;;;7.30;99.90;;;;;;5069225;27;20055;-85
2022/11/29 07:29:04;;;;;;;143.45;21.25;;;7.20;99.90;;;;;;5117298;27;20039;-83
2022/11/29 07:32:03;;;;;;;113.47;19.63;;;7.20;99.90;;;;;;5089092;27;20047;-84
2022/11/29 07:34:35;;;;;;;115.32;20.20;;;7.20;99.90;;;;;;5045144;27;20045;-83
2022/11/29 07:37:19;;;;;;;109.25;19.23;;;7.20;99.90;;;;;;5100596;27;20095;-84
2022/11/29 07:39:53;;;;;;;106.95;19.27;;;7.20;99.90;;;;;;5101515;27;20079;-84
2022/11/29 07:42:34;;;;;;;119.78;20.13;;;7.20;99.90;;;;;;5100549;27;20124;-84
2022/11/29 07:45:20;;;;;;;119.22;19.95;;;7.20;99.90;;;;;;5101139;27;20050;-84
2022/11/29 07:47:46;;;;;;;115.47;18.85;;;7.20;99.90;;;;;;5116223;27;20075;-84
2022/11/29 07:50:12;;;;;;;120.38;18.88;;;7.20;99.90;;;;;;5084628;27;20079;-83
2022/11/29 07:52:37;;;;;;;112.80;19.52;;;8.50;99.90;;;;;;5102619;27;20034;-84
2022/11/29 07:55:04;;;;;;;94.80;18.58;;;7.30;99.90;;;;;;5137771;27;20045;-83
2022/11/29 07:57:29;;;;;;;106.13;19.33;;;7.30;99.90;;;;;;5085773;27;20102;-83
2022/11/29 07:59:55;;;;;;;90.72;17.52;;;7.40;99.90;;;;;;5102970;27;20121;-84
2022/11/29 08:02:30;;;;;;;115.68;19.48;;;7.30;99.90;;;;;;5102855;27;20415;-83
2022/11/29 08:04:56;;;;;;;114.75;19.65;;;7.30;99.90;;;;;;5092102;27;20031;-83
2022/11/29 08:07:21;;;;;;;108.38;19.05;;;7.30;99.90;;;;;;5119429;27;20781;-84
2022/11/29 08:09:47;;;;;;;104.10;19.00;;;7.30;99.90;;;;;;5119443;27;20521;-83
2022/11/29 08:12:13;;;;;;;91.28;18.40;;;7.30;99.90;;;;;;5119687;27;20074;-84
2022/11/29 08:14:38;;;;;;;87.15;17.92;;;7.30;99.90;;;;;;5102027;27;20043;-84
2022/11/29 08:17:05;;;;;;;109.68;19.40;;;7.40;99.90;;;;;;5137063;27;20039;-84
2022/11/29 08:19:31;;;;;;;112.88;19.02;;;7.60;99.90;;;;;;5139155;27;20533;-85
2022/11/29 08:21:56;;;;;;;127.57;19.85;;;7.40;99.90;;;;;;5105522;27;20567;-84
2022/11/29 08:24:22;;;;;;;119.35;20.08;;;7.40;99.90;;;;;;5119334;27;20629;-84
2022/11/29 08:26:47;;;;;;;111.80;20.13;;;7.40;99.90;;;;;;5093793;27;20043;-85
2022/11/29 08:29:14;;;;;;;100.22;17.98;;;7.40;99.90;;;;;;5119937;27;20039;-84
2022/11/29 08:31:39;;;;;;;107.70;19.63;;;7.40;99.90;;;;;;5084653;27;20038;-83
2022/11/29 08:34:05;;;;;;;91.47;18.48;;;7.40;99.90;;;;;;5085100;27;20049;-83
2022/11/29 08:36:31;;;;;;;104.88;18.50;;;7.50;99.90;;;;;;5100534;27;20047;-83
2022/11/29 08:38:57;;;;;;;90.88;17.98;;;7.50;99.90;;;;;;5135209;27;20055;-87
2022/11/29 08:41:23;;;;;;;89.60;18.50;;;7.50;99.90;;;;;;5119731;27;20050;-87
2022/11/29 08:43:48;;;;;;;79.40;17.63;;;7.50;99.90;;;;;;5101544;27;20065;-85
2022/11/29 08:46:14;;;;;;;82.78;17.27;;;8.00;99.90;;;;;;5101391;27;20107;-85
2022/11/29 08:48:40;;;;;;;78.05;16.60;;;7.60;99.90;;;;;;5089626;27;20041;-84
2022/11/29 08:51:05;;;;;;;74.97;16.73;;;8.10;99.90;;;;;;5117922;27;20034;-84
2022/11/29 08:53:40;;;;;;;73.03;16.65;;;7.60;99.90;;;;;;5084427;27;20050;-82
2022/11/29 08:56:07;;;;;;;70.93;17.70;;;7.60;99.90;;;;;;5102403;27;20470;-84
2022/11/29 08:58:33;;;;;;;61.45;16.17;;;7.60;99.90;;;;;;5100671;27;20026;-83
2022/11/29 09:00:58;;;;;;;69.15;16.58;;;7.80;99.90;;;;;;5118124;27;20039;-84
2022/11/29 09:06:10;;;;;;;66.13;16.00;;;8.30;99.90;;;;;;5128778;27;20112;-85
2022/11/29 09:08:36;;;;;;;65.80;16.15;;;7.80;99.90;;;;;;5135605;27;20110;-84
2022/11/29 09:11:28;;;;;;;68.72;17.92;;;8.30;99.90;;;;;;5118080;27;20130;-84
2022/11/29 09:13:57;;;;;;;64.57;16.77;;;8.20;99.90;;;;;;5101117;27;20090;-84
2022/11/29 09:16:25;;;;;;;61.38;16.55;;;8.70;99.90;;;;;;5100407;27;20439;-84
2022/11/29 09:18:51;;;;;;;62.85;16.67;;;7.80;99.90;;;;;;5117582;27;20042;-84
2022/11/29 09:21:17;;;;;;;69.20;15.80;;;7.80;99.90;;;;;;5101327;27;20117;-85
2022/11/29 09:23:43;;;;;;;57.33;15.93;;;7.80;99.90;;;;;;5099797;27;20530;-85
2022/11/29 09:26:10;;;;;;;59.28;15.50;;;7.90;99.90;;;;;;5101043;27;20260;-84
2022/11/29 09:28:36;;;;;;;57.80;15.23;;;7.90;99.90;;;;;;5100684;27;20486;-84
2022/11/29 09:31:09;;;;;;;60.90;16.17;;;7.90;99.90;;;;;;5117923;27;20031;-84
2022/11/29 09:33:35;;;;;;;58.17;15.60;;;8.00;99.90;;;;;;5116904;27;20640;-84
2022/11/29 09:36:00;;;;;;;63.38;17.40;;;8.10;99.90;;;;;;5118657;27;20175;-85
2022/11/29 09:38:26;;;;;;;61.53;16.55;;;8.00;99.90;;;;;;5135534;27;20470;-85
2022/11/29 09:40:54;;;;;;;45.55;14.98;;;8.50;99.90;;;;;;5118704;27;20358;-85
2022/11/29 09:43:30;;;;;;;63.78;15.80;;;8.10;99.90;;;;;;5118937;27;20474;-84
2022/11/29 09:46:17;;;;;;;51.40;15.48;;;8.10;99.90;;;;;;5101452;27;20050;-83
2022/11/29 09:49:20;;;;;;;67.03;14.95;;;8.10;99.90;;;;;;5087491;27;20035;-83
2022/11/29 09:51:49;;;;;;;54.38;14.63;;;8.10;99.90;;;;;;5135300;27;20038;-85
2022/11/29 09:54:25;;;;;;;44.35;14.77;;;8.10;99.90;;;;;;5135924;27;20050;-85
2022/11/29 09:56:51;;;;;;;52.83;14.73;;;8.10;99.90;;;;;;5119023;27;20049;-84
2022/11/29 09:59:22;;;;;;;43.80;15.43;;;8.10;99.90;;;;;;5118328;27;20108;-85
2022/11/29 10:01:54;;;;;;;52.10;14.98;;;8.10;99.90;;;;;;5118461;27;20045;-84
2022/11/29 10:04:22;;;;;;;42.97;14.93;;;8.10;99.90;;;;;;5101910;27;20054;-84
2022/11/29 10:06:57;;;;;;;43.25;14.90;;;8.10;99.90;;;;;;5084211;27;20462;-85
2022/11/29 10:09:25;;;;;;;44.67;14.65;;;8.10;99.90;;;;;;5118222;27;20474;-84
2022/11/29 10:12:02;;;;;;;37.25;13.32;;;8.20;99.90;;;;;;5117779;27;20054;-84
2022/11/29 10:14:32;;;;;;;47.92;14.00;;;8.20;99.90;;;;;;5134916;27;20035;-85
2022/11/29 10:17:18;;;;;;;42.80;13.82;;;8.30;99.90;;;;;;5100561;27;20050;-84
2022/11/29 10:19:46;;;;;;;43.85;12.38;;;8.30;99.90;;;;;;5084099;27;20106;-84
2022/11/29 10:22:19;;;;;;;38.75;13.18;;;8.40;99.90;;;;;;5083012;27;20038;-83
2022/11/29 10:24:46;;;;;;;39.80;14.35;;;9.20;99.90;;;;;;5083782;27;20053;-84
2022/11/29 10:27:16;;;;;;;39.35;14.13;;;8.40;99.90;;;;;;5103133;27;20051;-83
2022/11/29 10:29:42;;;;;;;39.00;15.27;;;8.40;99.90;;;;;;5090101;27;20080;-84
2022/11/29 10:32:11;;;;;;;35.08;13.55;;;8.40;99.90;;;;;;5157168;27;20462;-84
2022/11/29 10:34:36;;;;;;;39.88;13.25;;;8.50;99.90;;;;;;5105017;27;20041;-83
2022/11/29 10:37:02;;;;;;;38.25;13.60;;;8.50;99.90;;;;;;5084035;27;20039;-84
2022/11/29 10:39:43;;;;;;;41.05;13.73;;;8.50;99.90;;;;;;5135505;27;20034;-83
2022/11/29 10:45:00;;;;;;;40.17;12.75;;;8.50;99.90;;;;;;5106175;27;20043;-84
2022/11/29 10:47:25;;;;;;;28.63;11.68;;;8.50;99.90;;;;;;5100466;27;20043;-85
2022/11/29 10:49:51;;;;;;;31.33;11.85;;;8.50;99.90;;;;;;5118117;27;20347;-85
2022/11/29 10:52:21;;;;;;;31.67;12.07;;;8.50;99.90;;;;;;5099911;27;20182;-84
2022/11/29 10:54:46;;;;;;;38.63;12.82;;;8.50;99.90;;;;;;5084444;27;20050;-84
2022/11/29 10:57:14;;;;;;;35.72;12.05;;;8.50;99.90;;;;;;5100715;27;20652;-84
2022/11/29 10:59:40;;;;;;;32.03;12.18;;;8.50;99.90;;;;;;5100548;27;20134;-84
2022/11/29 11:02:18;;;;;;;40.83;11.98;;;8.50;99.90;;;;;;5100239;27;20439;-82
2022/11/29 11:04:45;;;;;;;34.45;12.45;;;8.50;99.90;;;;;;5084019;27;20050;-85
2022/11/29 11:07:27;;;;;;;37.55;12.65;;;8.50;99.90;;;;;;5099960;27;20039;-83
2022/11/29 11:09:54;;;;;;;36.03;12.23;;;8.50;99.90;;;;;;5101772;27;20039;-84
2022/11/29 11:12:22;;;;;;;37.53;12.95;;;8.50;99.90;;;;;;5101070;27;20058;-84
2022/11/29 11:14:50;;;;;;;37.95;11.73;;;8.50;99.90;;;;;;5100655;27;20051;-83
2022/11/29 11:17:24;;;;;;;37.92;13.20;;;8.60;99.90;;;;;;5117599;27;20547;-83
2022/11/29 11:19:59;;;;;;;36.85;12.07;;;8.50;99.90;;;;;;5117911;27;20039;-82
2022/11/29 11:22:25;;;;;;;38.17;13.13;;;8.50;99.90;;;;;;5101146;27;20478;-83
2022/11/29 11:25:23;;;;;;;38.45;13.10;;;8.50;99.90;;;;;;5117472;27;20046;-84
2022/11/29 11:27:48;;;;;;;37.20;13.68;;;8.50;99.90;;;;;;5103726;27;20135;-84
2022/11/29 11:30:23;;;;;;;39.55;12.95;;;8.50;99.90;;;;;;5101607;27;20129;-85
2022/11/29 11:33:24;;;;;;;36.30;12.77;;;8.50;99.90;;;;;;5104753;27;20050;-83
2022/11/29 11:36:10;;;;;;;36.83;12.00;;;8.60;99.90;;;;;;5100466;27;20066;-85
2022/11/29 11:38:51;;;;;;;42.53;12.05;;;8.60;99.90;;;;;;5116572;27;20100;-83
2022/11/29 11:44:37;;;;;;;32.85;11.88;;;8.70;99.90;;;;;;5120444;27;20516;-84
2022/11/29 11:47:05;;;;;;;40.38;12.93;;;8.70;99.90;;;;;;5116709;27;20051;-84
2022/11/29 11:49:44;;;;;;;41.97;13.13;;;8.80;99.90;;;;;;5083477;27;20176;-85
2022/11/29 11:52:19;;;;;;;40.92;13.15;;;8.80;99.90;;;;;;5116579;27;20047;-86
2022/11/29 11:54:49;;;;;;;44.67;13.10;;;8.80;99.90;;;;;;5083434;27;20055;-84
2022/11/29 11:57:17;;;;;;;38.63;13.98;;;8.80;99.90;;;;;;5083132;27;20395;-84
2022/11/29 11:59:47;;;;;;;34.67;12.05;;;8.90;99.90;;;;;;5099857;27;20047;-84
2022/11/29 12:02:36;;;;;;;39.15;12.52;;;9.00;99.90;;;;;;5099119;27;20047;-85
2022/11/29 12:05:03;;;;;;;36.58;13.23;;;9.00;99.90;;;;;;5101126;27;20047;-85
2022/11/29 12:07:56;;;;;;;41.35;12.98;;;9.00;99.90;;;;;;5099691;27;20066;-84
2022/11/29 12:10:26;;;;;;;37.85;12.75;;;9.10;99.90;;;;;;5111314;27;20063;-85
2022/11/29 12:12:52;;;;;;;34.45;13.23;;;9.20;99.90;;;;;;5099963;27;20089;-84
2022/11/29 12:15:29;;;;;;;37.05;13.07;;;9.20;99.90;;;;;;5081739;27;20100;-84
2022/11/29 12:18:12;;;;;;;38.78;13.63;;;9.20;99.90;;;;;;5100899;27;20110;-83
2022/11/29 12:21:02;;;;;;;38.63;12.93;;;9.20;99.90;;;;;;5133671;27;20540;-84
2022/11/29 12:23:54;;;;;;;41.10;13.15;;;9.20;99.90;;;;;;5099078;27;20046;-83
2022/11/29 12:26:21;;;;;;;41.53;14.80;;;9.20;99.90;;;;;;5099096;27;20059;-84
2022/11/29 12:28:49;;;;;;;37.28;13.18;;;9.30;99.90;;;;;;5099076;27;20092;-84
2022/11/29 12:31:42;;;;;;;37.10;13.50;;;9.30;99.90;;;;;;5115822;27;20047;-83
2022/11/29 12:34:23;;;;;;;34.38;13.00;;;9.30;99.90;;;;;;5115796;27;20464;-84
2022/11/29 12:37:20;;;;;;;35.55;13.75;;;9.30;99.90;;;;;;5115907;27;20042;-84
2022/11/29 12:39:55;;;;;;;31.15;13.27;;;9.30;99.90;;;;;;5115945;27;20051;-83
2022/11/29 12:42:45;;;;;;;33.67;13.32;;;9.20;99.90;;;;;;5131943;27;20063;-83
2022/11/29 12:45:29;;;;;;;32.40;13.63;;;9.20;99.90;;;;;;5098321;27;20055;-84
2022/11/29 12:47:57;;;;;;;29.45;14.70;;;9.20;99.90;;;;;;5099487;27;20507;-83
2022/11/29 12:50:56;;;;;;;31.58;14.25;;;9.20;99.90;;;;;;5132264;27;20058;-84
2022/11/29 12:53:27;;;;;;;29.77;13.80;;;9.10;99.90;;;;;;5114653;27;20059;-83
2022/11/29 12:56:09;;;;;;;27.27;14.05;;;9.10;99.90;;;;;;5132353;27;20134;-82
2022/11/29 12:58:57;;;;;;;26.23;13.93;;;9.00;99.90;;;;;;5116593;27;20047;-83
2022/11/29 13:01:44;;;;;;;24.23;14.00;;;9.00;99.90;;;;;;5117985;27;20043;-83
2022/11/29 13:04:38;;;;;;;24.80;13.65;;;8.90;99.90;;;;;;5132297;27;20051;-84
2022/11/29 13:07:32;;;;;;;22.67;13.00;;;8.90;99.90;;;;;;5132188;27;20047;-84
2022/11/29 13:10:14;;;;;;;24.48;12.68;;;8.90;99.90;;;;;;5069920;27;20051;-82
2022/11/29 13:12:40;;;;;;;22.05;11.90;;;8.80;99.90;;;;;;5082145;27;20448;-83
2022/11/29 13:15:17;;;;;;;17.67;11.40;;;8.70;99.90;;;;;;5115406;27;20094;-83
2022/11/29 13:17:52;;;;;;;20.17;12.45;;;8.80;99.90;;;;;;5098461;27;20054;-83
2022/11/29 13:20:44;;;;;;;18.08;12.20;;;8.70;99.90;;;;;;5131792;27;20059;-84
2022/11/29 13:23:48;;;;;;;19.75;12.05;;;8.60;99.90;;;;;;5115470;27;20054;-83